sensor_id;sensor_type;location;lat;lon;timestamp;P1;durP1;ratioP1;P2;durP2;ratioP2
12135;SDS011;6131;56.420;15.548;2022-07-04T00:00:24;1.93;;;1.20;;
12135;SDS011;6131;56.420;15.548;2022-07-04T00:02:51;2.07;;;1.40;;
12135;SDS011;6131;56.420;15.548;2022-07-04T00:05:17;2.97;;;1.40;;
12135;SDS011;6131;56.420;15.548;2022-07-04T00:07:44;5.47;;;1.40;;
12135;SDS011;6131;56.420;15.548;2022-07-04T00:10:11;3.10;;;1.37;;
12135;SDS011;6131;56.420;15.548;2022-07-04T00:12:38;2.90;;;1.40;;
12135;SDS011;6131;56.420;15.548;2022-07-04T00:15:05;3.53;;;1.50;;
12135;SDS011;6131;56.420;15.548;2022-07-04T00:17:31;2.33;;;1.20;;
12135;SDS011;6131;56.420;15.548;2022-07-04T00:19:58;2.27;;;1.57;;
12135;SDS011;6131;56.420;15.548;2022-07-04T00:22:24;2.10;;;1.30;;
12135;SDS011;6131;56.420;15.548;2022-07-04T00:24:50;3.03;;;1.20;;
12135;SDS011;6131;56.420;15.548;2022-07-04T00:27:16;3.00;;;1.30;;
12135;SDS011;6131;56.420;15.548;2022-07-04T00:29:42;1.97;;;1.40;;
12135;SDS011;6131;56.420;15.548;2022-07-04T00:32:08;2.27;;;1.40;;
12135;SDS011;6131;56.420;15.548;2022-07-04T00:34:34;2.57;;;1.40;;
12135;SDS011;6131;56.420;15.548;2022-07-04T00:37:00;3.10;;;1.40;;
12135;SDS011;6131;56.420;15.548;2022-07-04T00:39:27;2.33;;;1.40;;
12135;SDS011;6131;56.420;15.548;2022-07-04T00:41:53;1.67;;;1.50;;
12135;SDS011;6131;56.420;15.548;2022-07-04T00:44:19;4.43;;;1.30;;
12135;SDS011;6131;56.420;15.548;2022-07-04T00:46:45;4.27;;;1.43;;
12135;SDS011;6131;56.420;15.548;2022-07-04T00:49:12;4.13;;;1.60;;
12135;SDS011;6131;56.420;15.548;2022-07-04T00:51:40;2.10;;;1.30;;
12135;SDS011;6131;56.420;15.548;2022-07-04T00:54:06;2.67;;;1.30;;
12135;SDS011;6131;56.420;15.548;2022-07-04T00:56:35;3.67;;;1.40;;
12135;SDS011;6131;56.420;15.548;2022-07-04T00:59:01;4.40;;;1.33;;
12135;SDS011;6131;56.420;15.548;2022-07-04T01:01:27;3.07;;;1.50;;
12135;SDS011;6131;56.420;15.548;2022-07-04T01:03:53;3.23;;;1.57;;
12135;SDS011;6131;56.420;15.548;2022-07-04T01:06:19;3.33;;;1.40;;
12135;SDS011;6131;56.420;15.548;2022-07-04T01:08:46;3.70;;;1.50;;
12135;SDS011;6131;56.420;15.548;2022-07-04T01:11:12;2.10;;;1.57;;
12135;SDS011;6131;56.420;15.548;2022-07-04T01:13:38;2.10;;;1.40;;
12135;SDS011;6131;56.420;15.548;2022-07-04T01:16:08;2.50;;;1.47;;
12135;SDS011;6131;56.420;15.548;2022-07-04T01:18:34;2.10;;;1.40;;
12135;SDS011;6131;56.420;15.548;2022-07-04T01:21:00;1.80;;;1.50;;
12135;SDS011;6131;56.420;15.548;2022-07-04T01:23:26;3.80;;;1.60;;
12135;SDS011;6131;56.420;15.548;2022-07-04T01:25:52;3.43;;;1.70;;
12135;SDS011;6131;56.420;15.548;2022-07-04T01:28:20;3.60;;;1.60;;
12135;SDS011;6131;56.420;15.548;2022-07-04T01:30:46;2.03;;;1.80;;
12135;SDS011;6131;56.420;15.548;2022-07-04T01:33:12;2.60;;;1.50;;
12135;SDS011;6131;56.420;15.548;2022-07-04T01:35:38;1.90;;;1.53;;
12135;SDS011;6131;56.420;15.548;2022-07-04T01:38:04;2.47;;;1.60;;
12135;SDS011;6131;56.420;15.548;2022-07-04T01:40:30;1.43;;;1.33;;
12135;SDS011;6131;56.420;15.548;2022-07-04T01:42:57;2.17;;;1.43;;
12135;SDS011;6131;56.420;15.548;2022-07-04T01:45:26;3.00;;;1.60;;
12135;SDS011;6131;56.420;15.548;2022-07-04T01:47:52;3.63;;;1.40;;
12135;SDS011;6131;56.420;15.548;2022-07-04T01:50:18;1.70;;;1.50;;
12135;SDS011;6131;56.420;15.548;2022-07-04T01:52:44;1.77;;;1.43;;
12135;SDS011;6131;56.420;15.548;2022-07-04T01:55:10;3.13;;;1.73;;
12135;SDS011;6131;56.420;15.548;2022-07-04T01:57:37;1.80;;;1.50;;
12135;SDS011;6131;56.420;15.548;2022-07-04T02:00:04;4.87;;;1.70;;
12135;SDS011;6131;56.420;15.548;2022-07-04T02:02:49;3.00;;;1.70;;
12135;SDS011;6131;56.420;15.548;2022-07-04T02:05:15;2.77;;;1.50;;
12135;SDS011;6131;56.420;15.548;2022-07-04T02:07:42;2.27;;;1.60;;
12135;SDS011;6131;56.420;15.548;2022-07-04T02:10:08;1.57;;;1.47;;
12135;SDS011;6131;56.420;15.548;2022-07-04T02:12:35;2.23;;;1.60;;
12135;SDS011;6131;56.420;15.548;2022-07-04T02:15:19;3.23;;;1.60;;
12135;SDS011;6131;56.420;15.548;2022-07-04T02:17:45;2.40;;;1.70;;
12135;SDS011;6131;56.420;15.548;2022-07-04T02:20:12;2.23;;;1.53;;
12135;SDS011;6131;56.420;15.548;2022-07-04T02:22:38;2.20;;;1.43;;
12135;SDS011;6131;56.420;15.548;2022-07-04T02:25:04;3.93;;;1.77;;
12135;SDS011;6131;56.420;15.548;2022-07-04T02:27:30;4.80;;;1.87;;
12135;SDS011;6131;56.420;15.548;2022-07-04T02:29:57;2.73;;;1.67;;
12135;SDS011;6131;56.420;15.548;2022-07-04T02:32:23;2.73;;;1.87;;
12135;SDS011;6131;56.420;15.548;2022-07-04T02:34:49;1.73;;;1.60;;
12135;SDS011;6131;56.420;15.548;2022-07-04T02:37:15;2.70;;;1.67;;
12135;SDS011;6131;56.420;15.548;2022-07-04T02:39:41;3.90;;;2.07;;
12135;SDS011;6131;56.420;15.548;2022-07-04T02:42:07;3.10;;;1.70;;
12135;SDS011;6131;56.420;15.548;2022-07-04T02:44:33;4.73;;;2.00;;
12135;SDS011;6131;56.420;15.548;2022-07-04T02:46:59;3.00;;;2.20;;
12135;SDS011;6131;56.420;15.548;2022-07-04T02:49:25;3.47;;;2.07;;
12135;SDS011;6131;56.420;15.548;2022-07-04T02:51:52;4.37;;;2.20;;
12135;SDS011;6131;56.420;15.548;2022-07-04T02:54:18;5.87;;;2.37;;
12135;SDS011;6131;56.420;15.548;2022-07-04T02:56:44;4.77;;;2.20;;
12135;SDS011;6131;56.420;15.548;2022-07-04T02:59:12;3.43;;;2.40;;
12135;SDS011;6131;56.420;15.548;2022-07-04T03:01:38;4.33;;;2.60;;
12135;SDS011;6131;56.420;15.548;2022-07-04T03:04:04;3.50;;;1.80;;
12135;SDS011;6131;56.420;15.548;2022-07-04T03:06:31;5.10;;;1.93;;
12135;SDS011;6131;56.420;15.548;2022-07-04T03:08:57;3.03;;;1.90;;
12135;SDS011;6131;56.420;15.548;2022-07-04T03:11:23;5.00;;;2.20;;
12135;SDS011;6131;56.420;15.548;2022-07-04T03:13:49;3.90;;;2.07;;
12135;SDS011;6131;56.420;15.548;2022-07-04T03:16:15;3.57;;;2.00;;
12135;SDS011;6131;56.420;15.548;2022-07-04T03:18:41;3.07;;;2.00;;
12135;SDS011;6131;56.420;15.548;2022-07-04T03:21:07;4.07;;;1.87;;
12135;SDS011;6131;56.420;15.548;2022-07-04T03:23:33;4.17;;;2.00;;
12135;SDS011;6131;56.420;15.548;2022-07-04T03:25:59;3.20;;;2.00;;
12135;SDS011;6131;56.420;15.548;2022-07-04T03:28:26;2.90;;;2.00;;
12135;SDS011;6131;56.420;15.548;2022-07-04T03:30:52;3.90;;;1.80;;
12135;SDS011;6131;56.420;15.548;2022-07-04T03:33:18;2.20;;;2.00;;
12135;SDS011;6131;56.420;15.548;2022-07-04T03:35:44;3.50;;;2.23;;
12135;SDS011;6131;56.420;15.548;2022-07-04T03:38:11;2.33;;;1.63;;
12135;SDS011;6131;56.420;15.548;2022-07-04T03:40:37;2.17;;;1.73;;
12135;SDS011;6131;56.420;15.548;2022-07-04T03:43:04;1.83;;;1.70;;
12135;SDS011;6131;56.420;15.548;2022-07-04T03:45:33;2.30;;;1.83;;
12135;SDS011;6131;56.420;15.548;2022-07-04T03:47:59;2.90;;;2.60;;
12135;SDS011;6131;56.420;15.548;2022-07-04T03:50:27;2.97;;;2.10;;
12135;SDS011;6131;56.420;15.548;2022-07-04T03:52:53;4.20;;;2.10;;
12135;SDS011;6131;56.420;15.548;2022-07-04T03:55:19;3.07;;;2.10;;
12135;SDS011;6131;56.420;15.548;2022-07-04T03:57:45;5.63;;;2.70;;
12135;SDS011;6131;56.420;15.548;2022-07-04T04:00:12;5.30;;;2.87;;
12135;SDS011;6131;56.420;15.548;2022-07-04T04:02:38;4.33;;;2.70;;
12135;SDS011;6131;56.420;15.548;2022-07-04T04:05:04;6.40;;;2.20;;
12135;SDS011;6131;56.420;15.548;2022-07-04T04:07:49;3.43;;;2.47;;
12135;SDS011;6131;56.420;15.548;2022-07-04T04:10:15;2.63;;;2.43;;
12135;SDS011;6131;56.420;15.548;2022-07-04T04:12:42;4.90;;;2.53;;
12135;SDS011;6131;56.420;15.548;2022-07-04T04:15:08;3.47;;;2.77;;
12135;SDS011;6131;56.420;15.548;2022-07-04T04:17:34;4.53;;;2.73;;
12135;SDS011;6131;56.420;15.548;2022-07-04T04:20:00;3.33;;;2.90;;
12135;SDS011;6131;56.420;15.548;2022-07-04T04:22:29;5.97;;;3.30;;
12135;SDS011;6131;56.420;15.548;2022-07-04T04:24:55;3.13;;;2.50;;
12135;SDS011;6131;56.420;15.548;2022-07-04T04:27:21;6.30;;;3.27;;
12135;SDS011;6131;56.420;15.548;2022-07-04T04:29:47;4.23;;;2.87;;
12135;SDS011;6131;56.420;15.548;2022-07-04T04:32:13;5.77;;;2.87;;
12135;SDS011;6131;56.420;15.548;2022-07-04T04:34:39;6.67;;;2.60;;
12135;SDS011;6131;56.420;15.548;2022-07-04T04:37:05;5.33;;;3.40;;
12135;SDS011;6131;56.420;15.548;2022-07-04T04:39:31;6.10;;;3.43;;
12135;SDS011;6131;56.420;15.548;2022-07-04T04:41:57;4.87;;;3.30;;
12135;SDS011;6131;56.420;15.548;2022-07-04T04:44:23;5.77;;;3.80;;
12135;SDS011;6131;56.420;15.548;2022-07-04T04:46:49;4.73;;;3.13;;
12135;SDS011;6131;56.420;15.548;2022-07-04T04:49:15;5.90;;;3.17;;
12135;SDS011;6131;56.420;15.548;2022-07-04T04:51:42;5.50;;;3.40;;
12135;SDS011;6131;56.420;15.548;2022-07-04T04:54:08;6.90;;;3.50;;
12135;SDS011;6131;56.420;15.548;2022-07-04T04:56:34;5.57;;;3.53;;
12135;SDS011;6131;56.420;15.548;2022-07-04T04:59:00;7.70;;;3.83;;
12135;SDS011;6131;56.420;15.548;2022-07-04T05:01:26;6.90;;;3.70;;
12135;SDS011;6131;56.420;15.548;2022-07-04T05:03:52;7.23;;;3.30;;
12135;SDS011;6131;56.420;15.548;2022-07-04T05:06:18;7.97;;;3.53;;
12135;SDS011;6131;56.420;15.548;2022-07-04T05:08:44;8.23;;;3.70;;
12135;SDS011;6131;56.420;15.548;2022-07-04T05:11:11;4.90;;;3.73;;
12135;SDS011;6131;56.420;15.548;2022-07-04T05:13:37;5.43;;;3.37;;
12135;SDS011;6131;56.420;15.548;2022-07-04T05:16:03;4.15;;;3.38;;
12135;SDS011;6131;56.420;15.548;2022-07-04T05:18:29;5.40;;;2.90;;
12135;SDS011;6131;56.420;15.548;2022-07-04T05:20:55;6.90;;;3.53;;
12135;SDS011;6131;56.420;15.548;2022-07-04T05:23:21;3.75;;;3.33;;
12135;SDS011;6131;56.420;15.548;2022-07-04T05:25:47;8.30;;;3.60;;
12135;SDS011;6131;56.420;15.548;2022-07-04T05:28:13;4.88;;;3.17;;
12135;SDS011;6131;56.420;15.548;2022-07-04T05:30:39;6.00;;;3.50;;
12135;SDS011;6131;56.420;15.548;2022-07-04T05:33:05;5.65;;;3.30;;
12135;SDS011;6131;56.420;15.548;2022-07-04T05:35:31;6.47;;;3.47;;
12135;SDS011;6131;56.420;15.548;2022-07-04T05:37:57;4.28;;;3.15;;
12135;SDS011;6131;56.420;15.548;2022-07-04T05:40:23;4.30;;;3.28;;
12135;SDS011;6131;56.420;15.548;2022-07-04T05:42:49;5.40;;;3.00;;
12135;SDS011;6131;56.420;15.548;2022-07-04T05:45:15;4.00;;;3.17;;
12135;SDS011;6131;56.420;15.548;2022-07-04T05:47:41;5.68;;;3.22;;
12135;SDS011;6131;56.420;15.548;2022-07-04T05:50:08;4.15;;;3.17;;
12135;SDS011;6131;56.420;15.548;2022-07-04T05:52:35;6.97;;;3.40;;
12135;SDS011;6131;56.420;15.548;2022-07-04T05:55:01;6.38;;;2.92;;
12135;SDS011;6131;56.420;15.548;2022-07-04T05:57:27;9.15;;;3.35;;
12135;SDS011;6131;56.420;15.548;2022-07-04T05:59:53;7.25;;;3.25;;
12135;SDS011;6131;56.420;15.548;2022-07-04T06:02:19;5.10;;;2.97;;
12135;SDS011;6131;56.420;15.548;2022-07-04T06:04:45;5.10;;;3.22;;
12135;SDS011;6131;56.420;15.548;2022-07-04T06:07:11;5.35;;;2.88;;
12135;SDS011;6131;56.420;15.548;2022-07-04T06:09:37;3.53;;;2.17;;
12135;SDS011;6131;56.420;15.548;2022-07-04T06:12:03;3.70;;;2.90;;
12135;SDS011;6131;56.420;15.548;2022-07-04T06:14:30;4.10;;;2.65;;
12135;SDS011;6131;56.420;15.548;2022-07-04T06:16:56;4.55;;;2.30;;
12135;SDS011;6131;56.420;15.548;2022-07-04T06:19:22;3.35;;;2.42;;
12135;SDS011;6131;56.420;15.548;2022-07-04T06:21:48;4.88;;;2.30;;
12135;SDS011;6131;56.420;15.548;2022-07-04T06:24:14;3.45;;;2.15;;
12135;SDS011;6131;56.420;15.548;2022-07-04T06:26:41;4.70;;;2.17;;
12135;SDS011;6131;56.420;15.548;2022-07-04T06:29:07;3.53;;;1.90;;
12135;SDS011;6131;56.420;15.548;2022-07-04T06:31:33;4.85;;;2.10;;
12135;SDS011;6131;56.420;15.548;2022-07-04T06:33:59;3.40;;;2.33;;
12135;SDS011;6131;56.420;15.548;2022-07-04T06:36:44;5.18;;;2.03;;
12135;SDS011;6131;56.420;15.548;2022-07-04T06:39:10;4.10;;;1.90;;
12135;SDS011;6131;56.420;15.548;2022-07-04T06:41:36;3.03;;;1.70;;
12135;SDS011;6131;56.420;15.548;2022-07-04T06:44:03;5.30;;;2.10;;
12135;SDS011;6131;56.420;15.548;2022-07-04T06:46:29;1.92;;;1.73;;
12135;SDS011;6131;56.420;15.548;2022-07-04T06:48:55;3.55;;;1.85;;
12135;SDS011;6131;56.420;15.548;2022-07-04T06:51:21;4.30;;;1.80;;
12135;SDS011;6131;56.420;15.548;2022-07-04T06:53:48;5.05;;;2.10;;
12135;SDS011;6131;56.420;15.548;2022-07-04T06:56:14;2.45;;;1.98;;
12135;SDS011;6131;56.420;15.548;2022-07-04T06:58:40;5.07;;;2.60;;
12135;SDS011;6131;56.420;15.548;2022-07-04T07:01:06;3.58;;;2.17;;
12135;SDS011;6131;56.420;15.548;2022-07-04T07:03:32;2.55;;;2.13;;
12135;SDS011;6131;56.420;15.548;2022-07-04T07:05:58;5.55;;;2.22;;
12135;SDS011;6131;56.420;15.548;2022-07-04T07:08:25;3.08;;;2.05;;
12135;SDS011;6131;56.420;15.548;2022-07-04T07:10:51;4.43;;;2.20;;
12135;SDS011;6131;56.420;15.548;2022-07-04T07:13:17;3.88;;;2.05;;
12135;SDS011;6131;56.420;15.548;2022-07-04T07:15:43;6.10;;;2.50;;
12135;SDS011;6131;56.420;15.548;2022-07-04T07:18:09;7.30;;;2.40;;
12135;SDS011;6131;56.420;15.548;2022-07-04T07:20:36;4.95;;;2.63;;
12135;SDS011;6131;56.420;15.548;2022-07-04T07:23:02;4.38;;;2.30;;
12135;SDS011;6131;56.420;15.548;2022-07-04T07:25:29;4.65;;;2.40;;
12135;SDS011;6131;56.420;15.548;2022-07-04T07:27:55;4.55;;;2.65;;
12135;SDS011;6131;56.420;15.548;2022-07-04T07:30:21;4.90;;;2.47;;
12135;SDS011;6131;56.420;15.548;2022-07-04T07:32:47;3.72;;;2.55;;
12135;SDS011;6131;56.420;15.548;2022-07-04T07:35:13;3.92;;;2.50;;
12135;SDS011;6131;56.420;15.548;2022-07-04T07:37:40;4.32;;;2.50;;
12135;SDS011;6131;56.420;15.548;2022-07-04T07:40:06;3.47;;;2.85;;
12135;SDS011;6131;56.420;15.548;2022-07-04T07:42:32;4.50;;;2.60;;
12135;SDS011;6131;56.420;15.548;2022-07-04T07:44:59;4.63;;;2.50;;
12135;SDS011;6131;56.420;15.548;2022-07-04T07:47:25;3.35;;;2.30;;
12135;SDS011;6131;56.420;15.548;2022-07-04T07:49:51;5.35;;;2.55;;
12135;SDS011;6131;56.420;15.548;2022-07-04T07:52:17;3.72;;;2.45;;
12135;SDS011;6131;56.420;15.548;2022-07-04T07:54:43;4.03;;;2.17;;
12135;SDS011;6131;56.420;15.548;2022-07-04T07:57:09;5.07;;;2.60;;
12135;SDS011;6131;56.420;15.548;2022-07-04T07:59:35;3.50;;;2.30;;
12135;SDS011;6131;56.420;15.548;2022-07-04T08:02:01;3.75;;;2.40;;
12135;SDS011;6131;56.420;15.548;2022-07-04T08:04:27;4.68;;;2.30;;
12135;SDS011;6131;56.420;15.548;2022-07-04T08:06:59;3.00;;;2.22;;
12135;SDS011;6131;56.420;15.548;2022-07-04T08:09:25;3.63;;;2.17;;
12135;SDS011;6131;56.420;15.548;2022-07-04T08:11:51;5.32;;;2.25;;
12135;SDS011;6131;56.420;15.548;2022-07-04T08:14:17;5.10;;;2.08;;
12135;SDS011;6131;56.420;15.548;2022-07-04T08:16:43;2.47;;;1.90;;
12135;SDS011;6131;56.420;15.548;2022-07-04T08:19:09;5.55;;;1.80;;
12135;SDS011;6131;56.420;15.548;2022-07-04T08:21:35;4.80;;;1.85;;
12135;SDS011;6131;56.420;15.548;2022-07-04T08:24:01;3.47;;;1.98;;
12135;SDS011;6131;56.420;15.548;2022-07-04T08:26:27;2.90;;;1.85;;
12135;SDS011;6131;56.420;15.548;2022-07-04T08:28:53;3.25;;;1.90;;
12135;SDS011;6131;56.420;15.548;2022-07-04T08:31:22;3.00;;;1.60;;
12135;SDS011;6131;56.420;15.548;2022-07-04T08:33:48;3.30;;;1.60;;
12135;SDS011;6131;56.420;15.548;2022-07-04T08:36:14;4.57;;;1.48;;
12135;SDS011;6131;56.420;15.548;2022-07-04T08:38:40;3.75;;;1.65;;
12135;SDS011;6131;56.420;15.548;2022-07-04T08:41:06;3.35;;;1.67;;
12135;SDS011;6131;56.420;15.548;2022-07-04T08:43:32;4.88;;;1.70;;
12135;SDS011;6131;56.420;15.548;2022-07-04T08:46:05;3.28;;;1.70;;
12135;SDS011;6131;56.420;15.548;2022-07-04T08:48:31;2.15;;;1.40;;
12135;SDS011;6131;56.420;15.548;2022-07-04T08:51:09;2.38;;;1.52;;
12135;SDS011;6131;56.420;15.548;2022-07-04T08:53:36;2.67;;;1.60;;
12135;SDS011;6131;56.420;15.548;2022-07-04T08:56:04;3.58;;;1.50;;
12135;SDS011;6131;56.420;15.548;2022-07-04T08:58:49;3.50;;;1.33;;
12135;SDS011;6131;56.420;15.548;2022-07-04T09:01:15;2.70;;;1.00;;
12135;SDS011;6131;56.420;15.548;2022-07-04T09:03:42;1.67;;;1.20;;
12135;SDS011;6131;56.420;15.548;2022-07-04T09:06:09;1.85;;;1.13;;
12135;SDS011;6131;56.420;15.548;2022-07-04T09:08:35;1.98;;;1.05;;
12135;SDS011;6131;56.420;15.548;2022-07-04T09:11:01;4.63;;;1.30;;
12135;SDS011;6131;56.420;15.548;2022-07-04T09:13:28;2.67;;;1.05;;
12135;SDS011;6131;56.420;15.548;2022-07-04T09:15:55;2.10;;;1.30;;
12135;SDS011;6131;56.420;15.548;2022-07-04T09:18:31;1.55;;;1.10;;
12135;SDS011;6131;56.420;15.548;2022-07-04T09:20:58;1.70;;;1.00;;
12135;SDS011;6131;56.420;15.548;2022-07-04T09:23:28;1.23;;;0.95;;
12135;SDS011;6131;56.420;15.548;2022-07-04T09:26:09;2.35;;;1.10;;
12135;SDS011;6131;56.420;15.548;2022-07-04T09:28:35;1.10;;;0.85;;
12135;SDS011;6131;56.420;15.548;2022-07-04T09:31:02;2.38;;;0.90;;
12135;SDS011;6131;56.420;15.548;2022-07-04T09:33:51;3.35;;;1.05;;
12135;SDS011;6131;56.420;15.548;2022-07-04T09:36:18;1.10;;;0.70;;
12135;SDS011;6131;56.420;15.548;2022-07-04T09:38:45;0.90;;;0.75;;
12135;SDS011;6131;56.420;15.548;2022-07-04T09:41:11;1.45;;;0.80;;
12135;SDS011;6131;56.420;15.548;2022-07-04T09:44:03;2.55;;;0.80;;
12135;SDS011;6131;56.420;15.548;2022-07-04T09:46:29;1.35;;;0.80;;
12135;SDS011;6131;56.420;15.548;2022-07-04T09:48:56;1.38;;;0.73;;
12135;SDS011;6131;56.420;15.548;2022-07-04T09:51:35;0.80;;;0.80;;
12135;SDS011;6131;56.420;15.548;2022-07-04T09:54:14;2.15;;;0.90;;
12135;SDS011;6131;56.420;15.548;2022-07-04T09:56:42;5.15;;;0.98;;
12135;SDS011;6131;56.420;15.548;2022-07-04T09:59:08;1.48;;;1.02;;
12135;SDS011;6131;56.420;15.548;2022-07-04T10:01:34;1.58;;;0.88;;
12135;SDS011;6131;56.420;15.548;2022-07-04T10:04:01;1.27;;;0.70;;
12135;SDS011;6131;56.420;15.548;2022-07-04T10:06:30;0.73;;;0.73;;
12135;SDS011;6131;56.420;15.548;2022-07-04T10:09:04;2.50;;;0.80;;
12135;SDS011;6131;56.420;15.548;2022-07-04T10:11:32;1.48;;;0.70;;
12135;SDS011;6131;56.420;15.548;2022-07-04T10:13:59;1.10;;;0.80;;
12135;SDS011;6131;56.420;15.548;2022-07-04T10:16:25;0.95;;;0.60;;
12135;SDS011;6131;56.420;15.548;2022-07-04T10:18:51;2.33;;;0.75;;
12135;SDS011;6131;56.420;15.548;2022-07-04T10:21:19;0.85;;;0.68;;
12135;SDS011;6131;56.420;15.548;2022-07-04T10:23:45;2.13;;;0.50;;
12135;SDS011;6131;56.420;15.548;2022-07-04T10:26:11;0.60;;;0.60;;
12135;SDS011;6131;56.420;15.548;2022-07-04T10:28:37;0.57;;;0.50;;
12135;SDS011;6131;56.420;15.548;2022-07-04T10:31:03;0.60;;;0.45;;
12135;SDS011;6131;56.420;15.548;2022-07-04T10:33:30;2.35;;;0.80;;
12135;SDS011;6131;56.420;15.548;2022-07-04T10:35:57;0.80;;;0.60;;
12135;SDS011;6131;56.420;15.548;2022-07-04T10:38:26;2.60;;;0.70;;
12135;SDS011;6131;56.420;15.548;2022-07-04T10:49:23;0.60;;;0.57;;
12135;SDS011;6131;56.420;15.548;2022-07-04T10:51:33;1.63;;;0.65;;
12135;SDS011;6131;56.420;15.548;2022-07-04T10:54:04;0.90;;;0.70;;
12135;SDS011;6131;56.420;15.548;2022-07-04T10:59:19;0.70;;;0.60;;
12135;SDS011;6131;56.420;15.548;2022-07-04T11:01:46;2.05;;;0.90;;
12135;SDS011;6131;56.420;15.548;2022-07-04T11:04:12;1.08;;;0.80;;
12135;SDS011;6131;56.420;15.548;2022-07-04T11:14:40;0.70;;;0.60;;
12135;SDS011;6131;56.420;15.548;2022-07-04T11:17:07;1.00;;;0.73;;
12135;SDS011;6131;56.420;15.548;2022-07-04T11:19:33;0.82;;;0.70;;
12135;SDS011;6131;56.420;15.548;2022-07-04T11:22:00;1.05;;;0.55;;
12135;SDS011;6131;56.420;15.548;2022-07-04T11:24:27;1.13;;;0.52;;
12135;SDS011;6131;56.420;15.548;2022-07-04T11:26:53;1.27;;;0.73;;
12135;SDS011;6131;56.420;15.548;2022-07-04T11:29:19;2.08;;;0.73;;
12135;SDS011;6131;56.420;15.548;2022-07-04T11:31:46;1.08;;;0.60;;
12135;SDS011;6131;56.420;15.548;2022-07-04T11:34:13;1.58;;;0.50;;
12135;SDS011;6131;56.420;15.548;2022-07-04T11:36:39;0.63;;;0.52;;
12135;SDS011;6131;56.420;15.548;2022-07-04T11:39:07;0.95;;;0.70;;
12135;SDS011;6131;56.420;15.548;2022-07-04T11:41:34;1.38;;;0.70;;
12135;SDS011;6131;56.420;15.548;2022-07-04T11:44:40;0.82;;;0.68;;
12135;SDS011;6131;56.420;15.548;2022-07-04T11:47:25;1.40;;;0.73;;
12135;SDS011;6131;56.420;15.548;2022-07-04T11:49:57;0.70;;;0.70;;
12135;SDS011;6131;56.420;15.548;2022-07-04T11:52:24;1.10;;;0.60;;
12135;SDS011;6131;56.420;15.548;2022-07-04T11:54:51;2.17;;;0.70;;
12135;SDS011;6131;56.420;15.548;2022-07-04T11:59:53;0.93;;;0.70;;
12135;SDS011;6131;56.420;15.548;2022-07-04T12:02:19;1.10;;;0.60;;
12135;SDS011;6131;56.420;15.548;2022-07-04T12:04:46;0.55;;;0.45;;
12135;SDS011;6131;56.420;15.548;2022-07-04T12:07:13;2.75;;;0.60;;
12135;SDS011;6131;56.420;15.548;2022-07-04T12:09:39;2.58;;;0.70;;
12135;SDS011;6131;56.420;15.548;2022-07-04T12:12:06;2.88;;;0.90;;
12135;SDS011;6131;56.420;15.548;2022-07-04T12:14:32;0.52;;;0.52;;
12135;SDS011;6131;56.420;15.548;2022-07-04T12:19:52;1.38;;;0.65;;
12135;SDS011;6131;56.420;15.548;2022-07-04T12:24:57;1.13;;;0.70;;
12135;SDS011;6131;56.420;15.548;2022-07-04T12:27:26;2.03;;;0.80;;
12135;SDS011;6131;56.420;15.548;2022-07-04T12:29:52;1.23;;;0.60;;
12135;SDS011;6131;56.420;15.548;2022-07-04T12:32:19;1.15;;;0.70;;
12135;SDS011;6131;56.420;15.548;2022-07-04T12:34:45;1.08;;;0.70;;
12135;SDS011;6131;56.420;15.548;2022-07-04T12:37:12;1.33;;;0.77;;
12135;SDS011;6131;56.420;15.548;2022-07-04T12:39:40;2.60;;;0.70;;
12135;SDS011;6131;56.420;15.548;2022-07-04T12:44:32;1.38;;;0.70;;
12135;SDS011;6131;56.420;15.548;2022-07-04T12:46:58;1.50;;;0.70;;
12135;SDS011;6131;56.420;15.548;2022-07-04T12:49:25;1.65;;;0.68;;
12135;SDS011;6131;56.420;15.548;2022-07-04T12:51:51;0.93;;;0.55;;
12135;SDS011;6131;56.420;15.548;2022-07-04T12:54:17;1.42;;;0.65;;
12135;SDS011;6131;56.420;15.548;2022-07-04T12:56:44;3.10;;;0.85;;
12135;SDS011;6131;56.420;15.548;2022-07-04T12:59:13;1.38;;;0.70;;
12135;SDS011;6131;56.420;15.548;2022-07-04T13:01:40;1.42;;;0.70;;
12135;SDS011;6131;56.420;15.548;2022-07-04T13:04:06;1.05;;;0.55;;
12135;SDS011;6131;56.420;15.548;2022-07-04T13:06:33;1.65;;;0.70;;
12135;SDS011;6131;56.420;15.548;2022-07-04T13:08:59;1.13;;;0.60;;
12135;SDS011;6131;56.420;15.548;2022-07-04T13:11:25;1.02;;;0.70;;
12135;SDS011;6131;56.420;15.548;2022-07-04T13:14:10;0.82;;;0.60;;
12135;SDS011;6131;56.420;15.548;2022-07-04T13:16:36;1.13;;;0.65;;
12135;SDS011;6131;56.420;15.548;2022-07-04T13:19:02;1.58;;;0.57;;
12135;SDS011;6131;56.420;15.548;2022-07-04T13:21:28;0.93;;;0.60;;
12135;SDS011;6131;56.420;15.548;2022-07-04T13:23:54;1.60;;;0.77;;
12135;SDS011;6131;56.420;15.548;2022-07-04T13:26:20;1.25;;;0.70;;
12135;SDS011;6131;56.420;15.548;2022-07-04T13:28:46;0.93;;;0.68;;
12135;SDS011;6131;56.420;15.548;2022-07-04T13:31:13;1.35;;;0.80;;
12135;SDS011;6131;56.420;15.548;2022-07-04T13:33:39;1.65;;;0.68;;
12135;SDS011;6131;56.420;15.548;2022-07-04T13:36:06;1.63;;;0.70;;
12135;SDS011;6131;56.420;15.548;2022-07-04T13:38:32;1.40;;;0.82;;
12135;SDS011;6131;56.420;15.548;2022-07-04T13:40:58;1.73;;;0.65;;
12135;SDS011;6131;56.420;15.548;2022-07-04T13:43:25;5.68;;;0.65;;
12135;SDS011;6131;56.420;15.548;2022-07-04T13:45:52;1.13;;;0.70;;
12135;SDS011;6131;56.420;15.548;2022-07-04T13:48:19;3.83;;;0.70;;
12135;SDS011;6131;56.420;15.548;2022-07-04T13:50:46;1.58;;;0.70;;
12135;SDS011;6131;56.420;15.548;2022-07-04T13:53:12;1.13;;;0.70;;
12135;SDS011;6131;56.420;15.548;2022-07-04T13:55:38;4.15;;;0.60;;
12135;SDS011;6131;56.420;15.548;2022-07-04T13:58:04;1.35;;;0.68;;
12135;SDS011;6131;56.420;15.548;2022-07-04T14:00:31;2.65;;;0.60;;
12135;SDS011;6131;56.420;15.548;2022-07-04T14:02:57;2.17;;;0.77;;
12135;SDS011;6131;56.420;15.548;2022-07-04T14:05:23;1.27;;;0.60;;
12135;SDS011;6131;56.420;15.548;2022-07-04T14:07:50;1.88;;;0.80;;
12135;SDS011;6131;56.420;15.548;2022-07-04T14:10:16;0.98;;;0.70;;
12135;SDS011;6131;56.420;15.548;2022-07-04T14:12:42;0.80;;;0.60;;
12135;SDS011;6131;56.420;15.548;2022-07-04T14:15:08;1.55;;;0.60;;
12135;SDS011;6131;56.420;15.548;2022-07-04T14:17:35;2.55;;;0.70;;
12135;SDS011;6131;56.420;15.548;2022-07-04T14:20:01;2.45;;;0.80;;
12135;SDS011;6131;56.420;15.548;2022-07-04T14:22:28;1.42;;;0.70;;
12135;SDS011;6131;56.420;15.548;2022-07-04T14:24:54;1.92;;;0.70;;
12135;SDS011;6131;56.420;15.548;2022-07-04T14:27:20;0.70;;;0.70;;
12135;SDS011;6131;56.420;15.548;2022-07-04T14:29:47;1.10;;;0.50;;
12135;SDS011;6131;56.420;15.548;2022-07-04T14:32:13;1.35;;;0.60;;
12135;SDS011;6131;56.420;15.548;2022-07-04T14:34:39;1.80;;;0.63;;
12135;SDS011;6131;56.420;15.548;2022-07-04T14:37:05;1.83;;;0.60;;
12135;SDS011;6131;56.420;15.548;2022-07-04T14:39:31;1.92;;;0.60;;
12135;SDS011;6131;56.420;15.548;2022-07-04T14:41:57;2.45;;;0.88;;
12135;SDS011;6131;56.420;15.548;2022-07-04T14:44:23;1.00;;;0.65;;
12135;SDS011;6131;56.420;15.548;2022-07-04T14:46:49;2.55;;;0.70;;
12135;SDS011;6131;56.420;15.548;2022-07-04T14:49:15;2.35;;;0.70;;
12135;SDS011;6131;56.420;15.548;2022-07-04T14:51:41;1.17;;;0.60;;
12135;SDS011;6131;56.420;15.548;2022-07-04T14:54:07;1.23;;;0.60;;
12135;SDS011;6131;56.420;15.548;2022-07-04T14:56:34;1.42;;;0.60;;
12135;SDS011;6131;56.420;15.548;2022-07-04T14:59:00;1.42;;;0.50;;
12135;SDS011;6131;56.420;15.548;2022-07-04T15:01:26;2.25;;;0.52;;
12135;SDS011;6131;56.420;15.548;2022-07-04T15:03:52;1.27;;;0.77;;
12135;SDS011;6131;56.420;15.548;2022-07-04T15:06:19;2.55;;;0.63;;
12135;SDS011;6131;56.420;15.548;2022-07-04T15:08:45;1.20;;;0.68;;
12135;SDS011;6131;56.420;15.548;2022-07-04T15:11:11;1.63;;;0.70;;
12135;SDS011;6131;56.420;15.548;2022-07-04T15:13:37;1.38;;;0.70;;
12135;SDS011;6131;56.420;15.548;2022-07-04T15:16:03;1.95;;;0.70;;